sensor_id;sensor_type;location;lat;lon;timestamp;pressure;altitude;pressure_sealevel;temperature;humidity
74868;BME280;63419;42.262;12.210;2022-12-29T00:01:01;98337.81;;;15.53;100.00
74868;BME280;63419;42.262;12.210;2022-12-29T00:03:28;98333.94;;;15.21;100.00
74868;BME280;63419;42.262;12.210;2022-12-29T00:05:57;98339.69;;;14.88;100.00
74868;BME280;63419;42.262;12.210;2022-12-29T00:08:25;98342.31;;;15.38;100.00
74868;BME280;63419;42.262;12.210;2022-12-29T00:11:14;98347.22;;;15.30;100.00
74868;BME280;63419;42.262;12.210;2022-12-29T00:13:42;98339.78;;;15.12;100.00
74868;BME280;63419;42.262;12.210;2022-12-29T00:16:31;98333.97;;;14.83;100.00
74868;BME280;63419;42.262;12.210;2022-12-29T00:18:59;98340.31;;;15.41;100.00
74868;BME280;63419;42.262;12.210;2022-12-29T00:21:28;98332.53;;;14.79;100.00
74868;BME280;63419;42.262;12.210;2022-12-29T00:24:20;98330.13;;;14.63;100.00
74868;BME280;63419;42.262;12.210;2022-12-29T00:27:14;98335.94;;;14.54;100.00
74868;BME280;63419;42.262;12.210;2022-12-29T00:30:01;98339.91;;;14.59;100.00
74868;BME280;63419;42.262;12.210;2022-12-29T00:32:46;98330.72;;;14.54;100.00
74868;BME280;63419;42.262;12.210;2022-12-29T00:35:44;98333.44;;;15.03;100.00
74868;BME280;63419;42.262;12.210;2022-12-29T00:38:13;98326.06;;;15.10;100.00
74868;BME280;63419;42.262;12.210;2022-12-29T00:40:59;98326.34;;;15.18;100.00
74868;BME280;63419;42.262;12.210;2022-12-29T00:43:45;98328.31;;;15.28;100.00
74868;BME280;63419;42.262;12.210;2022-12-29T00:46:32;98323.97;;;15.15;100.00
74868;BME280;63419;42.262;12.210;2022-12-29T00:49:01;98330.44;;;14.97;100.00
74868;BME280;63419;42.262;12.210;2022-12-29T00:51:48;98321.28;;;15.04;100.00
74868;BME280;63419;42.262;12.210;2022-12-29T00:54:16;98329.09;;;14.78;100.00
74868;BME280;63419;42.262;12.210;2022-12-29T00:56:47;98322.44;;;14.87;100.00
74868;BME280;63419;42.262;12.210;2022-12-29T00:59:15;98322.09;;;15.17;100.00
74868;BME280;63419;42.262;12.210;2022-12-29T01:01:45;98316.94;;;15.04;100.00
74868;BME280;63419;42.262;12.210;2022-12-29T01:04:13;98323.78;;;14.93;100.00
74868;BME280;63419;42.262;12.210;2022-12-29T01:06:41;98326.94;;;14.85;100.00
74868;BME280;63419;42.262;12.210;2022-12-29T01:09:10;98325.06;;;14.87;100.00
74868;BME280;63419;42.262;12.210;2022-12-29T01:11:56;98325.47;;;14.94;100.00
74868;BME280;63419;42.262;12.210;2022-12-29T01:14:24;98324.31;;;14.72;100.00
74868;BME280;63419;42.262;12.210;2022-12-29T01:16:52;98327.94;;;14.82;100.00
74868;BME280;63419;42.262;12.210;2022-12-29T01:19:20;98322.69;;;14.58;100.00
74868;BME280;63419;42.262;12.210;2022-12-29T01:21:48;98326.69;;;14.50;100.00
74868;BME280;63419;42.262;12.210;2022-12-29T01:24:18;98331.56;;;14.41;100.00
74868;BME280;63419;42.262;12.210;2022-12-29T01:26:46;98328.38;;;14.76;100.00
74868;BME280;63419;42.262;12.210;2022-12-29T01:29:14;98318.69;;;14.91;100.00
74868;BME280;63419;42.262;12.210;2022-12-29T01:31:45;98311.31;;;14.98;100.00
74868;BME280;63419;42.262;12.210;2022-12-29T01:34:13;98315.78;;;15.33;100.00
74868;BME280;63419;42.262;12.210;2022-12-29T01:36:40;98309.75;;;14.82;100.00
74868;BME280;63419;42.262;12.210;2022-12-29T01:39:07;98316.31;;;14.75;100.00
74868;BME280;63419;42.262;12.210;2022-12-29T01:41:35;98322.16;;;14.66;100.00
74868;BME280;63419;42.262;12.210;2022-12-29T01:44:02;98307.06;;;15.34;100.00
74868;BME280;63419;42.262;12.210;2022-12-29T01:46:44;98306.91;;;15.11;100.00
74868;BME280;63419;42.262;12.210;2022-12-29T01:49:27;98314.28;;;15.54;100.00
74868;BME280;63419;42.262;12.210;2022-12-29T01:52:06;98314.41;;;15.16;100.00
74868;BME280;63419;42.262;12.210;2022-12-29T01:54:41;98309.41;;;15.50;100.00
74868;BME280;63419;42.262;12.210;2022-12-29T01:57:19;98309.63;;;15.71;100.00
74868;BME280;63419;42.262;12.210;2022-12-29T02:00:04;98317.78;;;14.66;100.00
74868;BME280;63419;42.262;12.210;2022-12-29T02:02:50;98305.09;;;14.88;100.00
74868;BME280;63419;42.262;12.210;2022-12-29T02:08:13;98313.69;;;15.75;100.00
74868;BME280;63419;42.262;12.210;2022-12-29T02:10:42;98304.47;;;16.06;100.00
74868;BME280;63419;42.262;12.210;2022-12-29T02:13:15;98302.72;;;15.83;100.00
74868;BME280;63419;42.262;12.210;2022-12-29T02:16:29;98302.94;;;15.31;100.00
74868;BME280;63419;42.262;12.210;2022-12-29T02:33:41;98294.66;;;15.74;100.00
74868;BME280;63419;42.262;12.210;2022-12-29T02:36:33;98299.88;;;16.10;100.00
74868;BME280;63419;42.262;12.210;2022-12-29T02:39:39;98285.34;;;16.18;100.00
74868;BME280;63419;42.262;12.210;2022-12-29T02:42:29;98294.50;;;16.35;100.00
74868;BME280;63419;42.262;12.210;2022-12-29T02:48:04;98297.91;;;15.89;100.00
74868;BME280;63419;42.262;12.210;2022-12-29T02:53:32;98284.06;;;15.65;100.00
74868;BME280;63419;42.262;12.210;2022-12-29T02:56:18;98290.63;;;15.57;100.00
74868;BME280;63419;42.262;12.210;2022-12-29T02:58:45;98290.19;;;15.39;100.00
74868;BME280;63419;42.262;12.210;2022-12-29T03:11:04;98306.66;;;13.31;100.00
74868;BME280;63419;42.262;12.210;2022-12-29T03:13:49;98301.81;;;14.60;100.00
74868;BME280;63419;42.262;12.210;2022-12-29T03:16:51;98284.16;;;15.39;100.00
74868;BME280;63419;42.262;12.210;2022-12-29T03:19:35;98283.69;;;15.58;100.00
74868;BME280;63419;42.262;12.210;2022-12-29T03:22:10;98284.13;;;15.28;100.00
74868;BME280;63419;42.262;12.210;2022-12-29T03:25:10;98272.53;;;15.32;100.00
74868;BME280;63419;42.262;12.210;2022-12-29T03:27:49;98276.09;;;15.55;100.00
74868;BME280;63419;42.262;12.210;2022-12-29T03:30:18;98275.09;;;15.93;100.00
74868;BME280;63419;42.262;12.210;2022-12-29T03:32:54;98268.47;;;16.00;100.00
74868;BME280;63419;42.262;12.210;2022-12-29T03:35:26;98273.84;;;15.74;100.00
74868;BME280;63419;42.262;12.210;2022-12-29T03:38:18;98274.44;;;15.78;100.00
74868;BME280;63419;42.262;12.210;2022-12-29T03:40:56;98267.13;;;15.83;100.00
74868;BME280;63419;42.262;12.210;2022-12-29T03:43:26;98268.38;;;16.13;100.00
74868;BME280;63419;42.262;12.210;2022-12-29T03:45:54;98269.25;;;16.13;100.00
74868;BME280;63419;42.262;12.210;2022-12-29T03:48:21;98276.09;;;14.94;100.00
74868;BME280;63419;42.262;12.210;2022-12-29T03:50:49;98286.00;;;15.50;100.00
74868;BME280;63419;42.262;12.210;2022-12-29T03:53:16;98281.28;;;16.14;100.00
74868;BME280;63419;42.262;12.210;2022-12-29T03:55:44;98285.75;;;14.79;100.00
74868;BME280;63419;42.262;12.210;2022-12-29T03:58:11;98286.69;;;14.91;100.00
74868;BME280;63419;42.262;12.210;2022-12-29T04:00:40;98289.94;;;14.81;100.00
74868;BME280;63419;42.262;12.210;2022-12-29T04:03:07;98283.06;;;16.03;100.00
74868;BME280;63419;42.262;12.210;2022-12-29T04:05:34;98275.88;;;15.82;100.00
74868;BME280;63419;42.262;12.210;2022-12-29T04:08:01;98282.47;;;15.75;100.00
74868;BME280;63419;42.262;12.210;2022-12-29T04:10:29;98288.06;;;14.83;100.00
74868;BME280;63419;42.262;12.210;2022-12-29T04:12:56;98300.81;;;14.35;100.00
74868;BME280;63419;42.262;12.210;2022-12-29T04:15:23;98295.38;;;15.39;100.00
74868;BME280;63419;42.262;12.210;2022-12-29T04:17:51;98291.34;;;14.08;100.00
74868;BME280;63419;42.262;12.210;2022-12-29T04:20:18;98291.31;;;15.24;100.00
74868;BME280;63419;42.262;12.210;2022-12-29T04:23:05;98294.38;;;14.79;100.00
74868;BME280;63419;42.262;12.210;2022-12-29T04:25:34;98301.94;;;15.08;100.00
74868;BME280;63419;42.262;12.210;2022-12-29T04:28:02;98304.66;;;14.42;100.00
74868;BME280;63419;42.262;12.210;2022-12-29T04:30:30;98311.13;;;14.75;100.00
74868;BME280;63419;42.262;12.210;2022-12-29T04:32:58;98307.81;;;14.73;100.00
74868;BME280;63419;42.262;12.210;2022-12-29T04:35:25;98319.50;;;13.87;100.00
74868;BME280;63419;42.262;12.210;2022-12-29T04:37:53;98310.78;;;15.06;100.00
74868;BME280;63419;42.262;12.210;2022-12-29T04:40:20;98300.25;;;15.68;100.00
74868;BME280;63419;42.262;12.210;2022-12-29T04:42:47;98312.56;;;14.41;100.00
74868;BME280;63419;42.262;12.210;2022-12-29T04:45:14;98328.00;;;13.49;100.00
74868;BME280;63419;42.262;12.210;2022-12-29T04:47:43;98322.63;;;14.97;100.00
74868;BME280;63419;42.262;12.210;2022-12-29T04:50:11;98322.88;;;14.02;100.00
74868;BME280;63419;42.262;12.210;2022-12-29T04:52:38;98329.69;;;13.90;100.00
74868;BME280;63419;42.262;12.210;2022-12-29T04:55:06;98342.09;;;13.02;100.00
74868;BME280;63419;42.262;12.210;2022-12-29T04:57:34;98342.03;;;13.87;100.00
74868;BME280;63419;42.262;12.210;2022-12-29T05:00:01;98327.75;;;14.85;100.00
74868;BME280;63419;42.262;12.210;2022-12-29T05:02:29;98317.41;;;14.33;100.00
74868;BME280;63419;42.262;12.210;2022-12-29T05:04:57;98317.31;;;15.24;100.00
74868;BME280;63419;42.262;12.210;2022-12-29T05:07:24;98313.44;;;14.67;100.00
74868;BME280;63419;42.262;12.210;2022-12-29T05:09:53;98315.25;;;15.65;100.00
74868;BME280;63419;42.262;12.210;2022-12-29T05:12:21;98309.13;;;15.66;100.00
74868;BME280;63419;42.262;12.210;2022-12-29T05:14:48;98309.09;;;15.78;100.00
74868;BME280;63419;42.262;12.210;2022-12-29T05:17:15;98309.53;;;15.96;100.00
74868;BME280;63419;42.262;12.210;2022-12-29T05:19:43;98310.50;;;16.07;100.00
74868;BME280;63419;42.262;12.210;2022-12-29T05:22:10;98310.94;;;16.01;100.00
74868;BME280;63419;42.262;12.210;2022-12-29T05:24:37;98314.84;;;13.80;100.00
74868;BME280;63419;42.262;12.210;2022-12-29T05:27:04;98323.47;;;14.46;100.00
74868;BME280;63419;42.262;12.210;2022-12-29T05:29:31;98328.97;;;14.41;100.00
74868;BME280;63419;42.262;12.210;2022-12-29T05:31:59;98327.31;;;14.53;100.00
74868;BME280;63419;42.262;12.210;2022-12-29T05:34:26;98318.59;;;14.93;100.00
74868;BME280;63419;42.262;12.210;2022-12-29T05:36:53;98325.13;;;14.47;100.00
74868;BME280;63419;42.262;12.210;2022-12-29T05:39:21;98318.97;;;15.12;100.00
74868;BME280;63419;42.262;12.210;2022-12-29T05:41:48;98321.50;;;15.01;100.00
74868;BME280;63419;42.262;12.210;2022-12-29T05:44:15;98318.56;;;14.54;100.00
74868;BME280;63419;42.262;12.210;2022-12-29T05:46:44;98324.44;;;14.83;100.00
74868;BME280;63419;42.262;12.210;2022-12-29T05:49:11;98316.31;;;15.01;100.00
74868;BME280;63419;42.262;12.210;2022-12-29T05:51:38;98317.00;;;15.40;100.00
74868;BME280;63419;42.262;12.210;2022-12-29T05:54:06;98318.63;;;14.80;100.00
74868;BME280;63419;42.262;12.210;2022-12-29T05:56:33;98314.84;;;14.97;100.00
74868;BME280;63419;42.262;12.210;2022-12-29T05:59:01;98313.16;;;15.09;100.00
74868;BME280;63419;42.262;12.210;2022-12-29T06:01:28;98319.84;;;15.00;100.00
74868;BME280;63419;42.262;12.210;2022-12-29T06:03:55;98327.09;;;15.08;100.00
74868;BME280;63419;42.262;12.210;2022-12-29T06:06:22;98318.34;;;15.21;100.00
74868;BME280;63419;42.262;12.210;2022-12-29T06:08:49;98322.50;;;15.11;100.00
74868;BME280;63419;42.262;12.210;2022-12-29T06:11:17;98321.13;;;14.81;100.00
74868;BME280;63419;42.262;12.210;2022-12-29T06:13:44;98325.03;;;15.00;100.00
74868;BME280;63419;42.262;12.210;2022-12-29T06:16:11;98328.66;;;14.84;100.00
74868;BME280;63419;42.262;12.210;2022-12-29T06:18:38;98335.09;;;14.92;100.00
74868;BME280;63419;42.262;12.210;2022-12-29T06:21:06;98326.19;;;14.96;100.00
74868;BME280;63419;42.262;12.210;2022-12-29T06:23:33;98333.59;;;14.63;100.00
74868;BME280;63419;42.262;12.210;2022-12-29T06:26:00;98336.91;;;14.78;100.00
74868;BME280;63419;42.262;12.210;2022-12-29T06:28:28;98339.81;;;14.74;100.00
74868;BME280;63419;42.262;12.210;2022-12-29T06:30:55;98332.09;;;14.98;100.00
74868;BME280;63419;42.262;12.210;2022-12-29T06:33:24;98334.78;;;15.09;100.00
74868;BME280;63419;42.262;12.210;2022-12-29T06:35:51;98338.97;;;14.60;100.00
74868;BME280;63419;42.262;12.210;2022-12-29T06:38:18;98340.22;;;14.68;100.00
74868;BME280;63419;42.262;12.210;2022-12-29T06:40:45;98332.94;;;14.85;100.00
74868;BME280;63419;42.262;12.210;2022-12-29T06:43:13;98339.69;;;15.14;100.00
74868;BME280;63419;42.262;12.210;2022-12-29T06:45:40;98335.22;;;15.40;100.00
74868;BME280;63419;42.262;12.210;2022-12-29T06:48:08;98334.88;;;15.20;100.00
74868;BME280;63419;42.262;12.210;2022-12-29T06:50:35;98340.34;;;15.29;100.00
74868;BME280;63419;42.262;12.210;2022-12-29T06:53:03;98344.53;;;15.55;100.00
74868;BME280;63419;42.262;12.210;2022-12-29T06:55:30;98336.63;;;15.57;100.00
74868;BME280;63419;42.262;12.210;2022-12-29T06:57:58;98333.44;;;15.53;100.00
74868;BME280;63419;42.262;12.210;2022-12-29T07:00:25;98334.25;;;15.04;100.00
74868;BME280;63419;42.262;12.210;2022-12-29T07:02:55;98350.78;;;14.52;100.00
74868;BME280;63419;42.262;12.210;2022-12-29T07:05:26;98347.69;;;14.72;100.00
74868;BME280;63419;42.262;12.210;2022-12-29T07:07:55;98346.63;;;15.13;100.00
74868;BME280;63419;42.262;12.210;2022-12-29T07:10:23;98342.97;;;15.66;100.00
74868;BME280;63419;42.262;12.210;2022-12-29T07:12:50;98344.31;;;15.95;100.00
74868;BME280;63419;42.262;12.210;2022-12-29T07:15:17;98331.91;;;15.75;100.00
74868;BME280;63419;42.262;12.210;2022-12-29T07:17:45;98339.56;;;15.52;100.00
74868;BME280;63419;42.262;12.210;2022-12-29T07:20:12;98344.38;;;16.18;100.00
74868;BME280;63419;42.262;12.210;2022-12-29T07:22:39;98339.94;;;16.31;100.00
74868;BME280;63419;42.262;12.210;2022-12-29T07:25:07;98338.53;;;16.39;100.00
74868;BME280;63419;42.262;12.210;2022-12-29T07:27:34;98336.38;;;16.32;100.00
74868;BME280;63419;42.262;12.210;2022-12-29T07:30:02;98338.56;;;16.14;100.00
74868;BME280;63419;42.262;12.210;2022-12-29T07:32:33;98339.84;;;16.33;100.00
74868;BME280;63419;42.262;12.210;2022-12-29T07:35:01;98340.16;;;16.28;100.00
74868;BME280;63419;42.262;12.210;2022-12-29T07:37:28;98345.28;;;16.06;100.00
74868;BME280;63419;42.262;12.210;2022-12-29T07:39:57;98342.69;;;16.41;100.00
74868;BME280;63419;42.262;12.210;2022-12-29T07:42:24;98334.56;;;16.80;100.00
74868;BME280;63419;42.262;12.210;2022-12-29T07:44:52;98344.13;;;16.56;100.00
74868;BME280;63419;42.262;12.210;2022-12-29T07:47:19;98347.88;;;16.06;100.00
74868;BME280;63419;42.262;12.210;2022-12-29T07:49:46;98345.44;;;15.67;100.00
74868;BME280;63419;42.262;12.210;2022-12-29T07:52:14;98354.06;;;15.80;100.00
74868;BME280;63419;42.262;12.210;2022-12-29T07:54:41;98355.97;;;14.39;100.00
74868;BME280;63419;42.262;12.210;2022-12-29T07:57:08;98358.72;;;13.83;100.00
74868;BME280;63419;42.262;12.210;2022-12-29T07:59:36;98363.03;;;14.50;100.00
74868;BME280;63419;42.262;12.210;2022-12-29T08:02:03;98357.44;;;15.07;100.00
74868;BME280;63419;42.262;12.210;2022-12-29T08:04:30;98360.03;;;15.20;100.00
74868;BME280;63419;42.262;12.210;2022-12-29T08:06:57;98385.00;;;12.92;100.00
74868;BME280;63419;42.262;12.210;2022-12-29T08:09:25;98382.72;;;13.45;100.00
74868;BME280;63419;42.262;12.210;2022-12-29T08:11:54;98387.19;;;13.70;100.00
74868;BME280;63419;42.262;12.210;2022-12-29T08:14:21;98383.84;;;13.12;100.00
74868;BME280;63419;42.262;12.210;2022-12-29T08:16:49;98398.34;;;13.29;100.00
74868;BME280;63419;42.262;12.210;2022-12-29T08:19:17;98393.16;;;14.39;100.00
74868;BME280;63419;42.262;12.210;2022-12-29T08:21:44;98397.63;;;12.98;100.00
74868;BME280;63419;42.262;12.210;2022-12-29T08:24:11;98406.13;;;13.29;100.00
74868;BME280;63419;42.262;12.210;2022-12-29T08:26:38;98391.31;;;14.14;100.00
74868;BME280;63419;42.262;12.210;2022-12-29T08:29:08;98402.44;;;13.62;100.00
74868;BME280;63419;42.262;12.210;2022-12-29T08:31:36;98397.97;;;13.21;100.00
74868;BME280;63419;42.262;12.210;2022-12-29T08:34:05;98409.34;;;12.89;100.00
74868;BME280;63419;42.262;12.210;2022-12-29T08:36:33;98399.56;;;15.12;100.00
74868;BME280;63419;42.262;12.210;2022-12-29T08:39:00;98382.41;;;15.96;100.00
74868;BME280;63419;42.262;12.210;2022-12-29T08:41:27;98381.06;;;15.04;100.00
74868;BME280;63419;42.262;12.210;2022-12-29T08:43:55;98377.59;;;15.16;100.00
74868;BME280;63419;42.262;12.210;2022-12-29T08:46:22;98385.56;;;13.96;100.00
74868;BME280;63419;42.262;12.210;2022-12-29T08:48:50;98396.91;;;13.81;100.00
74868;BME280;63419;42.262;12.210;2022-12-29T08:51:17;98387.38;;;15.38;100.00
74868;BME280;63419;42.262;12.210;2022-12-29T08:53:50;98397.53;;;13.43;100.00
74868;BME280;63419;42.262;12.210;2022-12-29T08:56:18;98413.41;;;13.80;100.00
74868;BME280;63419;42.262;12.210;2022-12-29T08:58:45;98402.34;;;16.09;100.00
74868;BME280;63419;42.262;12.210;2022-12-29T09:01:13;98390.53;;;15.05;100.00
74868;BME280;63419;42.262;12.210;2022-12-29T09:03:40;98407.44;;;13.92;100.00
74868;BME280;63419;42.262;12.210;2022-12-29T09:06:27;98424.91;;;13.04;100.00
74868;BME280;63419;42.262;12.210;2022-12-29T09:08:57;98423.59;;;13.68;100.00
74868;BME280;63419;42.262;12.210;2022-12-29T09:11:25;98433.41;;;12.91;100.00
74868;BME280;63419;42.262;12.210;2022-12-29T09:13:53;98421.47;;;14.70;100.00
74868;BME280;63419;42.262;12.210;2022-12-29T09:16:22;98413.59;;;15.22;100.00
74868;BME280;63419;42.262;12.210;2022-12-29T09:18:50;98411.31;;;13.43;100.00
74868;BME280;63419;42.262;12.210;2022-12-29T09:21:17;98421.50;;;13.18;100.00
74868;BME280;63419;42.262;12.210;2022-12-29T09:23:45;98422.84;;;14.35;100.00
74868;BME280;63419;42.262;12.210;2022-12-29T09:26:12;98422.06;;;13.51;100.00
74868;BME280;63419;42.262;12.210;2022-12-29T09:28:41;98415.28;;;14.05;100.00
74868;BME280;63419;42.262;12.210;2022-12-29T09:31:10;98413.69;;;15.21;100.00
74868;BME280;63419;42.262;12.210;2022-12-29T09:33:37;98407.34;;;14.21;100.00
74868;BME280;63419;42.262;12.210;2022-12-29T09:36:05;98411.34;;;14.12;100.00
74868;BME280;63419;42.262;12.210;2022-12-29T09:38:33;98413.59;;;15.22;100.00
74868;BME280;63419;42.262;12.210;2022-12-29T09:41:13;98392.47;;;15.77;100.00
74868;BME280;63419;42.262;12.210;2022-12-29T09:44:07;98395.03;;;15.53;100.00
74868;BME280;63419;42.262;12.210;2022-12-29T09:46:44;98387.34;;;15.51;100.00
74868;BME280;63419;42.262;12.210;2022-12-29T09:49:52;98406.09;;;14.66;100.00
74868;BME280;63419;42.262;12.210;2022-12-29T09:52:30;98401.47;;;14.57;100.00
74868;BME280;63419;42.262;12.210;2022-12-29T09:57:45;98389.19;;;15.62;100.00
74868;BME280;63419;42.262;12.210;2022-12-29T10:00:18;98395.84;;;15.53;100.00
74868;BME280;63419;42.262;12.210;2022-12-29T10:03:00;98398.31;;;14.26;100.00
74868;BME280;63419;42.262;12.210;2022-12-29T10:05:36;98413.31;;;14.08;100.00
74868;BME280;63419;42.262;12.210;2022-12-29T10:16:48;98382.81;;;15.03;100.00
74868;BME280;63419;42.262;12.210;2022-12-29T10:25:29;98370.97;;;15.99;100.00
74868;BME280;63419;42.262;12.210;2022-12-29T10:28:06;98367.75;;;14.70;100.00
74868;BME280;63419;42.262;12.210;2022-12-29T10:30:39;98385.19;;;13.88;100.00
74868;BME280;63419;42.262;12.210;2022-12-29T10:33:16;98383.28;;;13.50;100.00
74868;BME280;63419;42.262;12.210;2022-12-29T10:35:47;98391.63;;;13.41;100.00
74868;BME280;63419;42.262;12.210;2022-12-29T10:38:34;98397.47;;;13.71;100.00
74868;BME280;63419;42.262;12.210;2022-12-29T10:41:36;98373.38;;;16.49;100.00
74868;BME280;63419;42.262;12.210;2022-12-29T10:44:13;98357.75;;;15.52;100.00
74868;BME280;63419;42.262;12.210;2022-12-29T10:46:43;98363.44;;;14.43;100.00
74868;BME280;63419;42.262;12.210;2022-12-29T10:49:19;98368.28;;;15.01;100.00
74868;BME280;63419;42.262;12.210;2022-12-29T10:51:51;98367.28;;;14.38;100.00
74868;BME280;63419;42.262;12.210;2022-12-29T10:54:32;98357.34;;;15.58;100.00
74868;BME280;63419;42.262;12.210;2022-12-29T10:57:10;98352.00;;;15.36;100.00
74868;BME280;63419;42.262;12.210;2022-12-29T10:59:43;98344.53;;;15.55;100.00
74868;BME280;63419;42.262;12.210;2022-12-29T11:05:06;98332.63;;;16.36;100.00
74868;BME280;63419;42.262;12.210;2022-12-29T11:07:37;98324.72;;;16.49;100.00
74868;BME280;63419;42.262;12.210;2022-12-29T11:10:37;98326.81;;;16.44;100.00
74868;BME280;63419;42.262;12.210;2022-12-29T11:13:28;98322.00;;;15.80;100.00
74868;BME280;63419;42.262;12.210;2022-12-29T11:16:04;98315.84;;;15.20;100.00
74868;BME280;63419;42.262;12.210;2022-12-29T11:19:19;98319.84;;;16.45;100.00
74868;BME280;63419;42.262;12.210;2022-12-29T11:21:47;98315.31;;;16.35;100.00
74868;BME280;63419;42.262;12.210;2022-12-29T11:24:32;98303.34;;;17.02;100.00
74868;BME280;63419;42.262;12.210;2022-12-29T11:30:59;98299.78;;;15.39;100.00
74868;BME280;63419;42.262;12.210;2022-12-29T11:33:33;98297.34;;;16.44;100.00
74868;BME280;63419;42.262;12.210;2022-12-29T11:36:38;98295.00;;;16.63;100.00
74868;BME280;63419;42.262;12.210;2022-12-29T11:43:40;98287.19;;;16.63;100.00
74868;BME280;63419;42.262;12.210;2022-12-29T11:46:27;98296.72;;;15.21;100.00
74868;BME280;63419;42.262;12.210;2022-12-29T11:48:58;98287.28;;;15.92;100.00
74868;BME280;63419;42.262;12.210;2022-12-29T11:51:43;98285.44;;;15.57;100.00
74868;BME280;63419;42.262;12.210;2022-12-29T11:54:33;98277.25;;;15.99;100.00
74868;BME280;63419;42.262;12.210;2022-12-29T11:57:16;98294.91;;;14.33;100.00
74868;BME280;63419;42.262;12.210;2022-12-29T11:59:57;98294.72;;;14.62;100.00
74868;BME280;63419;42.262;12.210;2022-12-29T12:02:54;98284.53;;;15.70;100.00
74868;BME280;63419;42.262;12.210;2022-12-29T12:05:52;98253.09;;;18.39;100.00
74868;BME280;63419;42.262;12.210;2022-12-29T12:08:43;98241.19;;;17.07;100.00
74868;BME280;63419;42.262;12.210;2022-12-29T12:11:21;98260.19;;;14.47;100.00
74868;BME280;63419;42.262;12.210;2022-12-29T12:14:08;98266.19;;;14.99;100.00
74868;BME280;63419;42.262;12.210;2022-12-29T12:16:56;98250.69;;;17.08;100.00
74868;BME280;63419;42.262;12.210;2022-12-29T12:22:35;98224.38;;;17.76;100.00
74868;BME280;63419;42.262;12.210;2022-12-29T12:25:20;98229.88;;;16.63;100.00
74868;BME280;63419;42.262;12.210;2022-12-29T12:28:15;98233.59;;;16.03;100.00
74868;BME280;63419;42.262;12.210;2022-12-29T12:30:53;98242.09;;;15.45;100.00
74868;BME280;63419;42.262;12.210;2022-12-29T12:33:37;98238.50;;;16.41;100.00
74868;BME280;63419;42.262;12.210;2022-12-29T12:36:53;98240.72;;;15.76;100.00
74868;BME280;63419;42.262;12.210;2022-12-29T12:39:57;98213.06;;;18.60;100.00
74868;BME280;63419;42.262;12.210;2022-12-29T12:45:28;98215.66;;;17.34;100.00
74868;BME280;63419;42.262;12.210;2022-12-29T12:56:56;98188.44;;;18.01;100.00
74868;BME280;63419;42.262;12.210;2022-12-29T13:06:22;98195.88;;;15.37;100.00
74868;BME280;63419;42.262;12.210;2022-12-29T13:09:11;98196.09;;;16.05;100.00
74868;BME280;63419;42.262;12.210;2022-12-29T13:15:21;98188.28;;;16.73;100.00
74868;BME280;63419;42.262;12.210;2022-12-29T13:18:34;98200.63;;;15.19;100.00
74868;BME280;63419;42.262;12.210;2022-12-29T13:21:27;98210.03;;;15.09;100.00
74868;BME280;63419;42.262;12.210;2022-12-29T13:30:12;98198.91;;;15.07;100.00
74868;BME280;63419;42.262;12.210;2022-12-29T13:41:08;98172.69;;;16.28;100.00
74868;BME280;63419;42.262;12.210;2022-12-29T13:43:40;98168.34;;;18.22;100.00
74868;BME280;63419;42.262;12.210;2022-12-29T13:46:40;98164.88;;;17.17;100.00
74868;BME280;63419;42.262;12.210;2022-12-29T13:49:20;98163.59;;;17.00;100.00
74868;BME280;63419;42.262;12.210;2022-12-29T14:00:48;98175.75;;;16.44;100.00
74868;BME280;63419;42.262;12.210;2022-12-29T14:07:06;98170.84;;;15.48;100.00
74868;BME280;63419;42.262;12.210;2022-12-29T14:09:47;98178.41;;;15.86;100.00
74868;BME280;63419;42.262;12.210;2022-12-29T14:12:42;98170.28;;;15.55;100.00
74868;BME280;63419;42.262;12.210;2022-12-29T14:17:41;98173.03;;;15.30;100.00
74868;BME280;63419;42.262;12.210;2022-12-29T14:31:52;98181.31;;;16.17;100.00
74868;BME280;63419;42.262;12.210;2022-12-29T14:34:45;98175.44;;;15.20;100.00
74868;BME280;63419;42.262;12.210;2022-12-29T14:37:31;98182.00;;;16.75;100.00
74868;BME280;63419;42.262;12.210;2022-12-29T14:42:54;98155.88;;;18.05;100.00
74868;BME280;63419;42.262;12.210;2022-12-29T14:45:30;98171.06;;;15.45;100.00
74868;BME280;63419;42.262;12.210;2022-12-29T14:48:00;98188.56;;;15.18;100.00
74868;BME280;63419;42.262;12.210;2022-12-29T14:50:40;98174.66;;;16.13;100.00
74868;BME280;63419;42.262;12.210;2022-12-29T14:56:29;98173.47;;;15.83;100.00
74868;BME280;63419;42.262;12.210;2022-12-29T14:59:03;98175.16;;;15.71;100.00
74868;BME280;63419;42.262;12.210;2022-12-29T15:04:15;98173.22;;;15.86;100.00
74868;BME280;63419;42.262;12.210;2022-12-29T15:06:46;98178.94;;;14.83;100.00
74868;BME280;63419;42.262;12.210;2022-12-29T15:09:47;98187.59;;;14.71;100.00
74868;BME280;63419;42.262;12.210;2022-12-29T15:12:47;98189.16;;;15.22;100.00
74868;BME280;63419;42.262;12.210;2022-12-29T15:15:27;98183.97;;;14.61;100.00
74868;BME280;63419;42.262;12.210;2022-12-29T15:17:57;98181.88;;;14.66;100.00
74868;BME280;63419;42.262;12.210;2022-12-29T15:20:43;98184.00;;;15.57;100.00
74868;BME280;63419;42.262;12.210;2022-12-29T15:23:12;98184.22;;;14.06;100.00
74868;BME280;63419;42.262;12.210;2022-12-29T15:26:07;98186.22;;;14.78;100.00
74868;BME280;63419;42.262;12.210;2022-12-29T15:28:45;98190.28;;;14.57;100.00
74868;BME280;63419;42.262;12.210;2022-12-29T15:31:19;98190.53;;;15.15;100.00
74868;BME280;63419;42.262;12.210;2022-12-29T15:34:10;98196.53;;;13.90;100.00